Arthur, IN

4:49 AM EST on January 30, 2015 (GMT -0500)
1 Block West of Oakland City University | Change Station
CLOSE
Current Station
Personal Weather Station
Location: Oakland City, IN
Elevation: 490 ft
Nearby Weather Stations

Elev 490 ft 38.34 °N, 87.35 °W | Updated 6 seconds ago

Overcast
Overcast
34.6 °F
Feels Like 26 °F
N
12.0
Wind Variable Wind from NW
Gusts 19.0 mph

Today
High -- | Low -- °F
--% Chance of Precip.
Yesterday
High -- | Low -- °F
Precip. -- in
7:55 AM 6:08 PM
Waxing Gibbous, 81% visible
Pressure 30.38 in
Visibility 10.0 miles
Clouds Overcast 3900 ft
Windchill 26 °F
Dew Point 27 °F
Humidity 73%
Rainfall 0.00 in
Snow Depth Not available.
UV 0 out of 12
Pollen 1.40 out of 12
Air Quality Not available.
Flu Activity Not available.
METAR KHNB 300935Z AUTO 31012G15KT 10SM OVC039 01/M04 A3038 RMK AO1

More Conditions Fewer Conditions

Pressure 30.38 in
Visibility 10.0 miles
Clouds Overcast 3900 ft
Windchill 26 °F
Dew Point 27 °F
Humidity 73%
Rainfall 0.00 in
Snow Depth Not available.
UV 0 out of 12
Pollen 1.40 out of 12
Air Quality Not available.
Flu Activity Not available.
METAR KHNB 300935Z AUTO 31012G15KT 10SM OVC039 01/M04 A3038 RMK AO1

More Conditions Fewer Conditions

10-Day Weather Forecast

Almanac

Astronomy

Jan. 30, 2015 Rise Set
Actual Time
Civil Twilight
Nautical Twilight
Astronomical Twilight
Moon
Length of Visible Light
Length of Day
Tomorrow will be .
, % of the Moon is Illuminated

Today's Extremes

State Highs State Lows

Community

WunderPhotos

Upload Photos

1,791,737 photos uploaded!

WunderBlogs® & News

Nearby

Air Quality

  Air Quality AQ Index Pollutant
Not available.

Snow Depth

Station Depth Elevation

Earthquake Activity

City Distance Mag. Time & Date
Minimum magnitude displayed is 2.5.

Coastal Water Temperatures

Place Temperature

Nearby Weather Stations